createdAt,value
2018-02-20T00:00:55.072Z,27.15
2018-02-20T00:01:58.411Z,26.70
2018-02-20T00:04:11.371Z,27.20
2018-02-20T00:05:14.760Z,25.00
2018-02-20T00:06:18.306Z,26.52
2018-02-20T00:07:21.692Z,27.92
2018-02-20T00:08:25.009Z,29.37
2018-02-20T00:09:28.334Z,26.08
2018-02-20T00:10:31.715Z,26.42
2018-02-20T00:11:35.026Z,27.27
2018-02-20T00:12:38.370Z,25.88
2018-02-20T00:13:41.715Z,27.85
2018-02-20T00:14:45.038Z,28.55
2018-02-20T00:15:48.372Z,26.42
2018-02-20T00:16:51.781Z,27.25
2018-02-20T00:17:55.144Z,28.00
2018-02-20T00:18:58.498Z,27.20
2018-02-20T00:20:01.841Z,27.75
2018-02-20T00:21:05.158Z,26.23
2018-02-20T00:22:08.469Z,28.70
2018-02-20T00:23:11.814Z,27.73
2018-02-20T00:24:15.165Z,26.85
2018-02-20T00:25:18.486Z,27.35
2018-02-20T00:26:22.328Z,26.92
2018-02-20T00:27:25.686Z,25.23
2018-02-20T00:28:29.066Z,28.12
2018-02-20T00:29:32.418Z,26.20
2018-02-20T00:30:35.794Z,26.08
2018-02-20T00:31:39.109Z,26.45
2018-02-20T00:32:42.446Z,27.60
2018-02-20T00:33:45.801Z,26.85
2018-02-20T00:34:49.133Z,26.92
2018-02-20T00:35:52.569Z,27.75
2018-02-20T00:36:55.946Z,27.52
2018-02-20T00:37:59.867Z,29.92
2018-02-20T00:39:03.218Z,27.50
2018-02-20T00:40:06.578Z,30.12
2018-02-20T00:41:09.965Z,28.73
2018-02-20T00:42:13.277Z,27.48
2018-02-20T00:43:16.655Z,27.08
2018-02-20T00:44:20.009Z,27.15
2018-02-20T00:45:23.407Z,27.70
2018-02-20T00:46:26.721Z,26.70
2018-02-20T00:47:30.099Z,26.10
2018-02-20T00:48:33.425Z,28.35
2018-02-20T00:49:36.773Z,27.87
2018-02-20T00:50:40.101Z,27.55
2018-02-20T00:51:43.420Z,26.98
2018-02-20T00:52:46.748Z,26.23
2018-02-20T00:53:50.090Z,28.17
2018-02-20T00:54:53.444Z,28.70
2018-02-20T00:55:56.795Z,28.50
2018-02-20T00:57:00.106Z,28.52
2018-02-20T00:58:03.518Z,27.98
2018-02-20T00:59:06.823Z,26.67
2018-02-20T01:00:10.174Z,26.50
2018-02-20T01:01:13.561Z,26.52
2018-02-20T01:02:16.894Z,26.87
2018-02-20T01:03:20.381Z,27.13
2018-02-20T01:04:23.785Z,29.75
2018-02-20T01:05:27.159Z,27.48
2018-02-20T01:06:30.529Z,27.52
2018-02-20T01:07:33.885Z,27.30
2018-02-20T01:08:37.372Z,28.30
2018-02-20T01:09:40.702Z,26.95
2018-02-20T01:10:44.078Z,27.27
2018-02-20T01:11:47.421Z,27.02
2018-02-20T01:12:50.744Z,27.98
2018-02-20T01:13:54.088Z,28.58
2018-02-20T01:14:57.417Z,29.25
2018-02-20T01:16:00.803Z,29.33
2018-02-20T01:17:04.153Z,29.05
2018-02-20T01:18:07.516Z,28.15
2018-02-20T01:19:10.837Z,28.85
2018-02-20T01:20:14.152Z,29.10
2018-02-20T01:21:17.569Z,28.08
2018-02-20T01:22:20.894Z,28.10
2018-02-20T01:23:24.229Z,29.35
2018-02-20T01:24:27.629Z,29.00
2018-02-20T01:25:31.082Z,28.33
2018-02-20T01:26:34.423Z,28.35
2018-02-20T01:27:37.743Z,28.58
2018-02-20T01:28:41.164Z,27.10
2018-02-20T01:29:44.478Z,28.25
2018-02-20T01:30:47.864Z,28.50
2018-02-20T01:31:51.193Z,29.08
2018-02-20T01:32:54.511Z,26.70
2018-02-20T01:33:57.872Z,26.70
2018-02-20T01:35:01.218Z,30.33
2018-02-20T01:36:04.588Z,29.90
2018-02-20T01:37:07.938Z,27.30
2018-02-20T01:38:11.261Z,30.12
2018-02-20T01:39:14.581Z,27.15
2018-02-20T01:40:17.889Z,28.08
2018-02-20T01:41:21.222Z,27.80
2018-02-20T01:42:24.817Z,28.38
2018-02-20T01:43:28.177Z,28.48
2018-02-20T01:44:31.511Z,27.40
2018-02-20T01:45:34.929Z,27.55
2018-02-20T01:46:38.285Z,29.45
2018-02-20T01:47:41.640Z,27.58
2018-02-20T01:48:45.004Z,28.58
2018-02-20T01:49:48.331Z,28.62
2018-02-20T01:51:03.485Z,27.65
2018-02-20T01:52:06.835Z,28.50
2018-02-20T01:53:10.228Z,26.05
2018-02-20T01:54:13.568Z,29.17
2018-02-20T01:55:16.909Z,28.90
2018-02-20T01:56:20.443Z,27.50
2018-02-20T01:57:23.804Z,28.98
2018-02-20T01:58:27.142Z,28.00
2018-02-20T01:59:30.456Z,29.60
2018-02-20T02:00:33.839Z,27.98
2018-02-20T02:01:37.205Z,27.80
2018-02-20T02:02:40.560Z,29.30
2018-02-20T02:03:43.932Z,27.52
2018-02-20T02:04:47.249Z,28.77
2018-02-20T02:05:50.573Z,28.87
2018-02-20T02:06:53.980Z,27.42
2018-02-20T02:07:57.312Z,27.60
2018-02-20T02:09:00.698Z,28.25
2018-02-20T02:10:04.121Z,28.48
2018-02-20T02:11:07.421Z,27.92
2018-02-20T02:12:10.809Z,26.95
2018-02-20T02:13:14.299Z,26.35
2018-02-20T02:14:17.685Z,28.58
2018-02-20T02:15:21.020Z,27.87
2018-02-20T02:16:25.308Z,28.05
2018-02-20T02:17:28.614Z,28.83
2018-02-20T02:18:31.940Z,27.90
2018-02-20T02:19:35.328Z,28.87
2018-02-20T02:20:38.661Z,27.30
2018-02-20T02:21:41.997Z,29.27
2018-02-20T02:22:45.339Z,26.73
2018-02-20T02:23:48.721Z,26.50
2018-02-20T02:24:52.083Z,29.00
2018-02-20T02:25:55.408Z,32.15
2018-02-20T02:26:58.762Z,27.90
2018-02-20T02:28:02.094Z,27.23
2018-02-20T02:29:05.531Z,28.98
2018-02-20T02:30:08.913Z,31.23
2018-02-20T02:31:12.757Z,28.58
2018-02-20T02:32:16.084Z,29.75
2018-02-20T02:33:19.411Z,28.83
2018-02-20T02:34:22.771Z,28.95
2018-02-20T02:35:26.132Z,27.37
2018-02-20T02:36:29.475Z,27.62
2018-02-20T02:37:32.794Z,31.00
2018-02-20T02:38:36.137Z,27.58
2018-02-20T02:39:39.448Z,28.33
2018-02-20T02:40:42.855Z,27.87
2018-02-20T02:41:46.176Z,28.40
2018-02-20T02:42:49.507Z,30.25
2018-02-20T02:43:52.886Z,27.13
2018-02-20T02:44:56.245Z,27.90
2018-02-20T02:45:59.645Z,27.40
2018-02-20T02:47:03.077Z,27.42
2018-02-20T02:48:06.474Z,28.55
2018-02-20T02:49:09.864Z,28.30
2018-02-20T02:50:13.163Z,28.50
2018-02-20T02:51:16.543Z,29.33
2018-02-20T02:52:19.875Z,30.50
2018-02-20T02:53:23.186Z,29.70
2018-02-20T02:54:26.546Z,29.80
2018-02-20T02:55:29.894Z,28.50
2018-02-20T02:56:33.285Z,26.45
2018-02-20T02:57:36.657Z,28.75
2018-02-20T02:58:40.080Z,27.60
2018-02-20T02:59:43.399Z,27.92
2018-02-20T03:00:46.752Z,27.42
2018-02-20T03:01:50.101Z,30.77
2018-02-20T03:02:53.515Z,28.83
2018-02-20T03:03:56.903Z,29.12
2018-02-20T03:05:00.235Z,28.40
2018-02-20T03:06:03.556Z,32.53
2018-02-20T03:07:06.947Z,28.80
2018-02-20T03:08:10.291Z,27.33
2018-02-20T03:09:13.612Z,28.40
2018-02-20T03:10:16.984Z,29.08
2018-02-20T03:11:20.357Z,27.42
2018-02-20T03:12:23.996Z,30.00
2018-02-20T03:13:27.293Z,27.75
2018-02-20T03:14:30.619Z,29.85
2018-02-20T03:15:33.985Z,29.15
2018-02-20T03:16:37.379Z,28.02
2018-02-20T03:17:40.726Z,29.10
2018-02-20T03:18:44.083Z,29.40
2018-02-20T03:19:47.532Z,27.60
2018-02-20T03:20:50.857Z,29.92
2018-02-20T03:21:54.177Z,28.02
2018-02-20T03:22:57.525Z,28.02
2018-02-20T03:24:00.893Z,28.58
2018-02-20T03:25:04.302Z,29.75
2018-02-20T03:26:08.077Z,26.98
2018-02-20T03:27:11.405Z,27.05
2018-02-20T03:28:14.853Z,29.95
2018-02-20T03:29:18.189Z,28.30
2018-02-20T03:30:21.561Z,28.90
2018-02-20T03:31:24.905Z,29.52
2018-02-20T03:32:28.242Z,30.20
2018-02-20T03:33:31.607Z,29.02
2018-02-20T03:34:34.942Z,29.17
2018-02-20T03:35:39.160Z,29.02
2018-02-20T03:36:42.513Z,29.05
2018-02-20T03:37:45.856Z,28.55
2018-02-20T03:38:49.272Z,28.52
2018-02-20T03:39:52.658Z,29.30
2018-02-20T03:40:56.009Z,27.95
2018-02-20T03:41:59.376Z,29.77
2018-02-20T03:43:02.690Z,29.85
2018-02-20T03:44:06.046Z,28.52
2018-02-20T03:45:09.381Z,29.52
2018-02-20T03:46:12.719Z,25.92
2018-02-20T03:47:16.126Z,28.15
2018-02-20T03:48:19.441Z,27.10
2018-02-20T03:49:22.854Z,28.10
2018-02-20T03:50:26.191Z,31.15
2018-02-20T03:51:29.515Z,28.10
2018-02-20T03:52:32.853Z,28.45
2018-02-20T03:53:36.258Z,29.83
2018-02-20T03:54:39.646Z,28.45
2018-02-20T03:55:42.959Z,27.42
2018-02-20T03:56:46.284Z,28.55
2018-02-20T03:57:49.652Z,28.23
2018-02-20T03:58:52.981Z,28.42
2018-02-20T03:59:56.403Z,28.98
2018-02-20T04:00:59.719Z,28.08
2018-02-20T04:02:03.072Z,28.00
2018-02-20T04:03:06.402Z,27.50
2018-02-20T04:04:09.787Z,27.92
2018-02-20T04:05:13.112Z,30.05
2018-02-20T04:06:16.532Z,28.73
2018-02-20T04:07:19.909Z,28.33
2018-02-20T04:08:23.301Z,29.45
2018-02-20T04:09:26.632Z,30.02
2018-02-20T04:10:30.034Z,29.15
2018-02-20T04:11:33.386Z,27.60
2018-02-20T04:12:36.722Z,29.05
2018-02-20T04:13:40.156Z,29.42
2018-02-20T04:14:43.529Z,28.00
2018-02-20T04:15:46.905Z,28.92
2018-02-20T04:16:50.260Z,28.52
2018-02-20T04:17:53.623Z,29.63
2018-02-20T04:18:56.940Z,29.17
2018-02-20T04:20:00.449Z,29.35
2018-02-20T04:21:03.947Z,29.00
2018-02-20T04:22:07.265Z,30.62
2018-02-20T04:23:10.594Z,27.80
2018-02-20T04:24:13.923Z,27.98
2018-02-20T04:25:17.369Z,29.55
2018-02-20T04:26:20.702Z,30.95
2018-02-20T04:27:24.028Z,30.48
2018-02-20T04:28:27.470Z,30.15
2018-02-20T04:29:30.833Z,30.40
2018-02-20T04:30:34.149Z,30.35
2018-02-20T04:31:37.546Z,28.87
2018-02-20T04:32:40.860Z,30.77
2018-02-20T04:33:44.167Z,27.50
2018-02-20T04:34:47.526Z,29.63
2018-02-20T04:35:50.856Z,30.33
2018-02-20T04:36:54.220Z,28.62
2018-02-20T04:37:57.531Z,29.83
2018-02-20T04:39:00.884Z,30.90
2018-02-20T04:40:04.278Z,31.27
2018-02-20T04:41:07.634Z,29.48
2018-02-20T04:42:11.022Z,30.48
2018-02-20T04:43:14.453Z,29.75
2018-02-20T04:44:18.195Z,30.62
2018-02-20T04:45:21.637Z,30.33
2018-02-20T04:46:25.833Z,28.65
2018-02-20T04:47:29.245Z,30.65
2018-02-20T04:48:32.608Z,32.63
2018-02-20T04:49:35.983Z,30.50
2018-02-20T04:50:39.305Z,30.33
2018-02-20T04:51:42.659Z,29.30
2018-02-20T04:52:46.044Z,27.80
2018-02-20T04:53:49.436Z,31.27
2018-02-20T04:54:52.778Z,28.92
2018-02-20T04:55:56.094Z,29.10
2018-02-20T04:56:59.460Z,28.70
2018-02-20T04:58:02.912Z,27.25
2018-02-20T04:59:06.294Z,30.67
2018-02-20T05:00:10.145Z,31.67
2018-02-20T05:01:13.461Z,30.17
2018-02-20T05:02:16.835Z,29.25
2018-02-20T05:03:20.218Z,31.02
2018-02-20T05:04:23.560Z,30.52
2018-02-20T05:05:26.884Z,30.45
2018-02-20T05:06:30.270Z,27.30
2018-02-20T05:07:33.810Z,28.65
2018-02-20T05:08:37.150Z,31.27
2018-02-20T05:09:40.486Z,30.83
2018-02-20T05:10:43.831Z,30.35
2018-02-20T05:11:47.205Z,29.25
2018-02-20T05:12:50.539Z,31.23
2018-02-20T05:13:53.949Z,27.98
2018-02-20T05:14:57.268Z,27.40
2018-02-20T05:16:00.690Z,29.98
2018-02-20T05:17:04.006Z,29.10
2018-02-20T05:18:07.457Z,28.20
2018-02-20T05:19:10.896Z,28.77
2018-02-20T05:20:14.264Z,29.95
2018-02-20T05:21:17.592Z,29.35
2018-02-20T05:22:20.926Z,28.27
2018-02-20T05:23:26.174Z,29.50
2018-02-20T05:24:29.528Z,30.00
2018-02-20T05:25:32.967Z,29.87
2018-02-20T05:26:36.277Z,29.55
2018-02-20T05:27:39.595Z,28.67
2018-02-20T05:28:42.982Z,30.45
2018-02-20T05:29:46.374Z,28.23
2018-02-20T05:30:49.714Z,29.50
2018-02-20T05:31:53.022Z,30.33
2018-02-20T05:32:56.337Z,31.30
2018-02-20T05:33:59.653Z,27.98
2018-02-20T05:35:03.104Z,29.85
2018-02-20T05:36:06.452Z,29.58
2018-02-20T05:37:09.868Z,30.48
2018-02-20T05:38:13.280Z,29.52
2018-02-20T05:39:16.653Z,27.45
2018-02-20T05:40:19.991Z,28.00
2018-02-20T05:41:23.406Z,29.25
2018-02-20T05:42:26.773Z,30.60
2018-02-20T05:43:30.112Z,33.47
2018-02-20T05:44:33.484Z,31.25
2018-02-20T05:45:36.843Z,28.75
2018-02-20T05:46:40.201Z,29.12
2018-02-20T05:47:43.527Z,29.35
2018-02-20T05:48:46.889Z,30.60
2018-02-20T05:49:50.219Z,32.60
2018-02-20T05:50:53.610Z,30.80
2018-02-20T05:51:56.981Z,29.17
2018-02-20T05:53:00.337Z,30.35
2018-02-20T05:54:03.721Z,27.37
2018-02-20T05:55:07.113Z,29.70
2018-02-20T05:56:10.482Z,28.67
2018-02-20T05:57:13.923Z,28.75
2018-02-20T05:58:17.264Z,29.60
2018-02-20T05:59:20.809Z,28.65
2018-02-20T06:00:24.197Z,32.10
2018-02-20T06:01:27.564Z,29.30
2018-02-20T06:02:30.871Z,29.75
2018-02-20T06:03:34.522Z,28.58
2018-02-20T06:04:37.868Z,32.03
2018-02-20T06:05:41.229Z,28.73
2018-02-20T06:06:44.561Z,29.12
2018-02-20T06:07:48.088Z,26.65
2018-02-20T06:08:51.423Z,29.87
2018-02-20T06:09:54.768Z,30.10
2018-02-20T06:10:58.086Z,27.58
2018-02-20T06:12:01.500Z,27.33
2018-02-20T06:13:04.843Z,28.38
2018-02-20T06:14:08.160Z,30.37
2018-02-20T06:15:11.536Z,29.92
2018-02-20T06:16:14.875Z,27.52
2018-02-20T06:17:18.268Z,29.50
2018-02-20T06:18:21.584Z,28.73
2018-02-20T06:19:24.928Z,29.23
2018-02-20T06:20:28.232Z,30.52
2018-02-20T06:21:31.600Z,29.52
2018-02-20T06:22:34.920Z,31.17
2018-02-20T06:23:38.272Z,29.33
2018-02-20T06:24:41.612Z,29.60
2018-02-20T06:25:44.998Z,30.35
2018-02-20T06:26:48.287Z,28.27
2018-02-20T06:27:51.712Z,30.58
2018-02-20T06:28:55.053Z,29.05
2018-02-20T06:29:58.375Z,30.10
2018-02-20T06:31:01.759Z,29.17
2018-02-20T06:32:05.131Z,29.63
2018-02-20T06:33:08.476Z,31.20
2018-02-20T06:34:11.830Z,31.48
2018-02-20T06:35:15.267Z,31.83
2018-02-20T06:36:18.568Z,30.62
2018-02-20T06:37:21.886Z,30.33
2018-02-20T06:38:26.128Z,29.05
2018-02-20T06:39:29.485Z,30.73
2018-02-20T06:40:32.973Z,30.52
2018-02-20T06:41:36.285Z,31.10
2018-02-20T06:42:39.680Z,32.25
2018-02-20T06:43:43.163Z,31.83
2018-02-20T06:44:46.492Z,30.83
2018-02-20T06:45:49.935Z,31.35
2018-02-20T06:46:53.461Z,33.28
2018-02-20T06:47:56.808Z,30.27
2018-02-20T06:49:01.097Z,31.30
2018-02-20T06:50:04.620Z,30.42
2018-02-20T06:51:07.991Z,32.83
2018-02-20T06:52:11.310Z,33.00
2018-02-20T06:53:14.699Z,29.45
2018-02-20T06:54:18.251Z,29.48
2018-02-20T06:55:21.664Z,32.80
2018-02-20T06:56:25.002Z,30.55
2018-02-20T06:57:28.337Z,33.50
2018-02-20T06:58:31.798Z,31.83
2018-02-20T06:59:35.166Z,33.33
2018-02-20T07:00:38.563Z,32.95
2018-02-20T07:01:41.949Z,31.73
2018-02-20T07:02:45.383Z,31.12
2018-02-20T07:03:48.674Z,32.35
2018-02-20T07:04:52.026Z,31.80
2018-02-20T07:05:55.358Z,31.98
2018-02-20T07:06:58.693Z,32.33
2018-02-20T07:08:02.147Z,33.35
2018-02-20T07:09:05.453Z,33.53
2018-02-20T07:10:08.914Z,32.22
2018-02-20T07:11:12.746Z,31.50
2018-02-20T07:12:16.141Z,33.45
2018-02-20T07:13:19.471Z,32.70
2018-02-20T07:14:22.794Z,30.48
2018-02-20T07:15:26.280Z,30.10
2018-02-20T07:16:29.631Z,31.45
2018-02-20T07:17:33.091Z,32.85
2018-02-20T07:18:36.437Z,33.13
2018-02-20T07:19:39.837Z,31.80
2018-02-20T07:20:43.175Z,33.58
2018-02-20T07:21:46.553Z,30.02
2018-02-20T07:22:49.875Z,31.65
2018-02-20T07:23:53.296Z,32.50
2018-02-20T07:24:56.633Z,33.05
2018-02-20T07:26:00.181Z,32.58
2018-02-20T07:27:03.488Z,33.22
2018-02-20T07:28:07.012Z,31.92
2018-02-20T07:29:10.360Z,34.15
2018-02-20T07:30:15.403Z,34.78
2018-02-20T07:31:18.777Z,33.20
2018-02-20T07:32:22.291Z,32.35
2018-02-20T07:33:26.576Z,33.08
2018-02-20T07:34:35.407Z,32.88
2018-02-20T07:35:44.215Z,31.10
2018-02-20T07:36:47.680Z,31.12
2018-02-20T07:37:50.992Z,30.33
2018-02-20T07:38:54.478Z,31.50
2018-02-20T07:39:58.387Z,31.87
2018-02-20T07:41:01.789Z,32.95
2018-02-20T07:42:05.156Z,33.65
2018-02-20T07:43:08.476Z,32.72
2018-02-20T07:44:11.805Z,33.38
2018-02-20T07:45:15.199Z,37.90
2018-02-20T07:46:18.516Z,42.75
2018-02-20T07:47:21.882Z,40.88
2018-02-20T07:48:25.253Z,32.90
2018-02-20T07:49:28.671Z,34.95
2018-02-20T07:50:32.781Z,33.95
2018-02-20T07:51:36.228Z,33.47
2018-02-20T07:52:39.742Z,33.45
2018-02-20T07:53:43.129Z,32.78
2018-02-20T07:54:46.509Z,31.90
2018-02-20T07:55:49.840Z,33.53
2018-02-20T07:56:53.225Z,32.85
2018-02-20T07:57:56.616Z,34.63
2018-02-20T07:59:00.021Z,32.88
2018-02-20T08:00:03.417Z,32.53
2018-02-20T08:01:06.835Z,34.83
2018-02-20T08:02:10.181Z,35.88
2018-02-20T08:03:14.372Z,33.35
2018-02-20T08:04:17.712Z,36.05
2018-02-20T08:05:25.000Z,34.25
2018-02-20T08:06:28.355Z,32.78
2018-02-20T08:07:31.759Z,33.55
2018-02-20T08:08:35.359Z,35.72
2018-02-20T08:09:38.705Z,33.33
2018-02-20T08:10:42.083Z,32.83
2018-02-20T08:11:45.536Z,33.63
2018-02-20T08:12:48.868Z,32.38
2018-02-20T08:13:52.834Z,35.40
2018-02-20T08:14:56.147Z,36.10
2018-02-20T08:15:59.572Z,34.20
2018-02-20T08:17:02.921Z,34.03
2018-02-20T08:18:07.292Z,34.83
2018-02-20T08:19:12.398Z,34.40
2018-02-20T08:20:15.745Z,31.25
2018-02-20T08:21:19.069Z,35.20
2018-02-20T08:22:22.387Z,34.67
2018-02-20T08:23:25.740Z,35.72
2018-02-20T08:24:29.100Z,31.55
2018-02-20T08:25:32.512Z,33.95
2018-02-20T08:26:35.848Z,33.63
2018-02-20T08:27:39.220Z,33.75
2018-02-20T08:28:42.602Z,35.15
2018-02-20T08:29:45.960Z,34.85
2018-02-20T08:30:49.329Z,32.58
2018-02-20T08:31:53.141Z,36.75
2018-02-20T08:32:56.503Z,35.75
2018-02-20T08:33:59.958Z,37.67
2018-02-20T08:35:03.452Z,36.65
2018-02-20T08:36:06.909Z,35.35
2018-02-20T08:37:10.215Z,34.35
2018-02-20T08:38:13.556Z,34.72
2018-02-20T08:39:16.954Z,33.55
2018-02-20T08:40:20.455Z,33.47
2018-02-20T08:41:23.760Z,35.47
2018-02-20T08:42:27.135Z,33.88
2018-02-20T08:43:30.552Z,35.38
2018-02-20T08:44:33.902Z,35.08
2018-02-20T08:45:37.403Z,37.50
2018-02-20T08:46:40.715Z,35.50
2018-02-20T08:47:44.209Z,35.20
2018-02-20T08:48:47.566Z,36.80
2018-02-20T08:49:50.982Z,34.95
2018-02-20T08:50:54.385Z,35.92
2018-02-20T08:51:57.708Z,35.88
2018-02-20T08:53:01.175Z,37.03
2018-02-20T08:54:04.483Z,36.55
2018-02-20T08:55:08.056Z,35.97
2018-02-20T08:56:11.418Z,35.72
2018-02-20T08:57:14.797Z,34.83
2018-02-20T08:58:18.360Z,35.30
2018-02-20T08:59:21.679Z,35.95
2018-02-20T09:00:25.070Z,36.75
2018-02-20T09:01:28.485Z,36.00
2018-02-20T09:02:31.857Z,36.05
2018-02-20T09:03:35.272Z,36.30
2018-02-20T09:04:38.584Z,35.45
2018-02-20T09:05:42.096Z,37.53
2018-02-20T09:06:45.452Z,36.35
2018-02-20T09:07:49.386Z,37.33
2018-02-20T09:08:53.164Z,44.53
2018-02-20T09:09:56.496Z,35.97
2018-02-20T09:10:59.816Z,35.40
2018-02-20T09:12:03.153Z,38.05
2018-02-20T09:13:06.552Z,36.22
2018-02-20T09:14:09.954Z,37.00
2018-02-20T09:15:13.311Z,39.45
2018-02-20T09:16:16.666Z,37.13
2018-02-20T09:17:20.007Z,36.60
2018-02-20T09:18:23.356Z,38.15
2018-02-20T09:19:26.938Z,37.83
2018-02-20T09:20:30.348Z,34.85
2018-02-20T09:21:33.848Z,36.35
2018-02-20T09:22:37.185Z,37.47
2018-02-20T09:23:40.592Z,36.58
2018-02-20T09:24:43.911Z,36.25
2018-02-20T09:25:47.264Z,39.35
2018-02-20T09:26:50.661Z,37.35
2018-02-20T09:27:54.014Z,40.10
2018-02-20T09:28:57.454Z,38.13
2018-02-20T09:30:00.775Z,38.35
2018-02-20T09:31:04.099Z,37.72
2018-02-20T09:32:07.488Z,36.25
2018-02-20T09:33:10.843Z,38.40
2018-02-20T09:34:14.172Z,36.63
2018-02-20T09:35:17.507Z,37.78
2018-02-20T09:36:20.810Z,40.00
2018-02-20T09:37:24.181Z,39.22
2018-02-20T09:38:27.501Z,38.20
2018-02-20T09:39:30.838Z,38.55
2018-02-20T09:40:34.174Z,37.88
2018-02-20T09:41:37.484Z,38.25
2018-02-20T09:42:40.887Z,34.90
2018-02-20T09:43:44.252Z,37.95
2018-02-20T09:44:47.633Z,37.60
2018-02-20T09:45:50.941Z,37.10
2018-02-20T09:46:54.863Z,40.47
2018-02-20T09:47:58.267Z,37.00
2018-02-20T09:49:01.701Z,36.50
2018-02-20T09:50:05.023Z,38.58
2018-02-20T09:51:08.332Z,36.00
2018-02-20T09:52:11.672Z,37.47
2018-02-20T09:53:14.977Z,37.30
2018-02-20T09:54:18.488Z,41.20
2018-02-20T09:55:21.828Z,36.17
2018-02-20T09:56:25.232Z,34.63
2018-02-20T09:57:28.561Z,35.25
2018-02-20T09:58:31.849Z,37.72
2018-02-20T09:59:35.700Z,35.70
2018-02-20T10:00:39.178Z,34.67
2018-02-20T10:01:42.497Z,37.50
2018-02-20T10:02:45.816Z,35.65
2018-02-20T10:03:49.139Z,35.85
2018-02-20T10:04:52.625Z,36.92
2018-02-20T10:05:55.974Z,35.75
2018-02-20T10:06:59.310Z,36.85
2018-02-20T10:08:02.723Z,36.65
2018-02-20T10:09:06.116Z,35.83
2018-02-20T10:10:09.469Z,37.28
2018-02-20T10:11:12.792Z,38.00
2018-02-20T10:12:16.102Z,38.58
2018-02-20T10:13:19.530Z,39.63
2018-02-20T10:14:22.918Z,38.42
2018-02-20T10:15:26.349Z,36.35
2018-02-20T10:16:29.705Z,34.72
2018-02-20T10:17:33.016Z,36.38
2018-02-20T10:18:36.409Z,37.50
2018-02-20T10:19:39.769Z,34.10
2018-02-20T10:20:43.625Z,39.00
2018-02-20T10:21:48.000Z,38.75
2018-02-20T10:22:51.324Z,39.17
2018-02-20T10:23:54.715Z,38.20
2018-02-20T10:24:58.043Z,36.85
2018-02-20T10:26:04.092Z,37.35
2018-02-20T10:27:07.536Z,37.03
2018-02-20T10:28:10.909Z,37.33
2018-02-20T10:29:14.268Z,38.75
2018-02-20T10:30:17.698Z,39.10
2018-02-20T10:31:21.906Z,39.25
2018-02-20T10:32:25.606Z,38.45
2018-02-20T10:33:28.969Z,39.90
2018-02-20T10:34:32.262Z,35.92
2018-02-20T10:35:35.581Z,38.40
2018-02-20T10:36:39.033Z,37.45
2018-02-20T10:37:42.586Z,37.28
2018-02-20T10:38:45.925Z,36.97
2018-02-20T10:39:49.270Z,36.08
2018-02-20T10:40:52.628Z,39.53
2018-02-20T10:41:55.981Z,35.67
2018-02-20T10:42:59.325Z,36.88
2018-02-20T10:44:02.639Z,38.75
2018-02-20T10:45:06.062Z,39.67
2018-02-20T10:46:09.416Z,38.22
2018-02-20T10:47:12.807Z,36.97
2018-02-20T10:48:16.241Z,37.95
2018-02-20T10:49:19.585Z,37.50
2018-02-20T10:50:22.966Z,37.25
2018-02-20T10:51:26.349Z,36.78
2018-02-20T10:52:29.778Z,36.55
2018-02-20T10:53:33.185Z,34.03
2018-02-20T10:54:36.594Z,36.97
2018-02-20T10:55:39.916Z,36.80
2018-02-20T10:56:43.248Z,41.25
2018-02-20T10:57:46.801Z,36.75
2018-02-20T10:58:50.116Z,36.03
2018-02-20T10:59:53.432Z,40.42
2018-02-20T11:00:56.915Z,38.17
2018-02-20T11:02:00.357Z,38.38
2018-02-20T11:03:03.719Z,39.00
2018-02-20T11:04:07.076Z,39.28
2018-02-20T11:05:10.503Z,39.03
2018-02-20T11:06:13.872Z,40.97
2018-02-20T11:07:17.259Z,37.17
2018-02-20T11:08:20.578Z,39.47
2018-02-20T11:09:24.108Z,39.53
2018-02-20T11:10:27.420Z,41.58
2018-02-20T11:11:30.933Z,40.05
2018-02-20T11:12:34.282Z,40.75
2018-02-20T11:13:37.659Z,39.88
2018-02-20T11:14:41.005Z,40.67
2018-02-20T11:15:44.572Z,39.58
2018-02-20T11:16:47.940Z,39.50
2018-02-20T11:17:51.409Z,40.28
2018-02-20T11:18:54.928Z,39.83
2018-02-20T11:19:58.245Z,37.72
2018-02-20T11:21:01.563Z,39.53
2018-02-20T11:22:05.025Z,41.53
2018-02-20T11:23:08.434Z,41.28
2018-02-20T11:24:11.810Z,39.63
2018-02-20T11:25:15.310Z,39.50
2018-02-20T11:26:18.653Z,40.38
2018-02-20T11:27:21.993Z,41.20
2018-02-20T11:28:25.347Z,39.08
2018-02-20T11:29:28.674Z,41.05
2018-02-20T11:30:32.009Z,40.55
2018-02-20T11:31:35.318Z,38.40
2018-02-20T11:32:38.654Z,40.45
2018-02-20T11:33:41.982Z,38.50
2018-02-20T11:34:45.351Z,38.15
2018-02-20T11:35:48.685Z,37.90
2018-02-20T11:36:52.005Z,40.50
2018-02-20T11:37:55.333Z,39.42
2018-02-20T11:38:58.846Z,38.08
2018-02-20T11:40:02.172Z,40.10
2018-02-20T11:41:05.488Z,41.80
2018-02-20T11:42:08.913Z,40.65
2018-02-20T11:43:12.289Z,38.60
2018-02-20T11:44:15.797Z,40.30
2018-02-20T11:45:19.132Z,42.97
2018-02-20T11:46:22.697Z,40.22
2018-02-20T11:47:26.067Z,39.60
2018-02-20T11:48:29.453Z,39.63
2018-02-20T11:49:32.791Z,39.42
2018-02-20T11:50:36.145Z,39.45
2018-02-20T11:51:39.463Z,41.10
2018-02-20T11:53:52.333Z,40.85
2018-02-20T11:54:55.651Z,41.90
2018-02-20T11:55:59.036Z,39.53
2018-02-20T11:57:02.341Z,41.50
2018-02-20T11:58:05.652Z,38.97
2018-02-20T11:59:08.999Z,40.22
2018-02-20T12:00:12.369Z,37.45
2018-02-20T12:01:15.738Z,39.67
2018-02-20T12:02:19.211Z,41.72
2018-02-20T12:03:22.556Z,36.80
2018-02-20T12:04:25.897Z,38.80
2018-02-20T12:05:29.229Z,40.47
2018-02-20T12:06:32.624Z,39.22
2018-02-20T12:07:36.089Z,40.03
2018-02-20T12:08:39.461Z,38.65
2018-02-20T12:09:42.992Z,39.80
2018-02-20T12:10:46.322Z,43.67
2018-02-20T12:11:49.644Z,38.47
2018-02-20T12:12:52.967Z,36.97
2018-02-20T12:13:56.690Z,37.90
2018-02-20T12:15:00.123Z,41.00
2018-02-20T12:16:03.512Z,39.88
2018-02-20T12:17:06.853Z,36.28
2018-02-20T12:18:11.057Z,39.75
2018-02-20T12:19:15.172Z,38.15
2018-02-20T12:20:18.543Z,38.38
2018-02-20T12:21:21.840Z,39.90
2018-02-20T12:22:25.457Z,39.13
2018-02-20T12:23:28.816Z,37.78
2018-02-20T12:24:32.114Z,36.03
2018-02-20T12:25:36.515Z,36.22
2018-02-20T12:26:39.918Z,36.17
2018-02-20T12:27:43.284Z,38.15
2018-02-20T12:28:46.627Z,36.33
2018-02-20T12:29:49.951Z,36.67
2018-02-20T12:30:53.303Z,40.30
2018-02-20T12:31:56.620Z,37.63
2018-02-20T12:32:59.965Z,35.70
2018-02-20T12:34:03.287Z,38.25
2018-02-20T12:35:06.785Z,37.53
2018-02-20T12:36:10.082Z,36.60
2018-02-20T12:37:13.387Z,36.08
2018-02-20T12:38:16.732Z,39.00
2018-02-20T12:39:20.068Z,38.88
2018-02-20T12:40:23.396Z,39.45
2018-02-20T12:41:26.713Z,38.47
2018-02-20T12:42:30.098Z,36.80
2018-02-20T12:43:33.549Z,36.28
2018-02-20T12:44:36.868Z,37.80
2018-02-20T12:45:40.172Z,36.38
2018-02-20T12:46:43.569Z,38.88
2018-02-20T12:47:46.910Z,35.70
2018-02-20T12:48:50.235Z,34.92
2018-02-20T12:49:53.627Z,36.25
2018-02-20T12:50:56.968Z,36.50
2018-02-20T12:52:00.369Z,36.88
2018-02-20T12:53:03.737Z,39.45
2018-02-20T12:54:07.103Z,37.75
2018-02-20T12:55:10.462Z,36.75
2018-02-20T12:56:13.847Z,36.97
2018-02-20T12:57:17.165Z,35.28
2018-02-20T12:58:20.516Z,35.58
2018-02-20T12:59:23.896Z,36.00
2018-02-20T13:00:27.227Z,38.33
2018-02-20T13:01:30.569Z,36.92
2018-02-20T13:02:33.879Z,37.95
2018-02-20T13:03:37.195Z,39.45
2018-02-20T13:04:40.607Z,34.63
2018-02-20T13:05:43.944Z,36.13
2018-02-20T13:06:47.317Z,35.15
2018-02-20T13:07:51.441Z,36.10
2018-02-20T13:08:54.782Z,34.90
2018-02-20T13:09:58.205Z,43.55
2018-02-20T13:11:01.640Z,36.35
2018-02-20T13:12:05.011Z,34.70
2018-02-20T13:13:08.312Z,33.97
2018-02-20T13:14:11.710Z,33.35
2018-02-20T13:15:15.104Z,33.15
2018-02-20T13:16:18.416Z,33.83
2018-02-20T13:17:21.984Z,33.97
2018-02-20T13:18:25.329Z,30.37
2018-02-20T13:19:28.645Z,29.65
2018-02-20T13:20:32.002Z,26.85
2018-02-20T13:21:35.758Z,29.35
2018-02-20T13:23:02.700Z,29.05
2018-02-20T13:24:10.298Z,29.60
2018-02-20T13:25:13.705Z,29.98
2018-02-20T13:26:18.525Z,27.75
2018-02-20T13:27:21.919Z,25.75
2018-02-20T13:28:25.234Z,26.62
2018-02-20T13:29:28.543Z,24.60
2018-02-20T13:30:31.892Z,23.23
2018-02-20T13:31:35.278Z,23.35
2018-02-20T13:32:38.600Z,23.65
2018-02-20T13:33:41.954Z,25.10
2018-02-20T13:34:45.306Z,28.52
2018-02-20T13:35:48.634Z,25.08
2018-02-20T13:36:52.008Z,25.95
2018-02-20T13:37:56.177Z,26.10
2018-02-20T13:38:59.534Z,23.12
2018-02-20T13:40:02.853Z,20.30